createdAt,value
2023-05-24T00:01:08.784Z,12.07
2023-05-24T00:03:39.510Z,11.25
2023-05-24T00:06:08.265Z,11.93
2023-05-24T00:08:36.506Z,11.17
2023-05-24T00:11:06.190Z,11.60
2023-05-24T00:13:34.446Z,11.32
2023-05-24T00:16:02.707Z,10.75
2023-05-24T00:18:31.522Z,11.55
2023-05-24T00:21:00.110Z,11.98
2023-05-24T00:23:28.440Z,12.02
2023-05-24T00:25:56.642Z,11.60
2023-05-24T00:28:26.333Z,11.52
2023-05-24T00:30:54.711Z,10.10
2023-05-24T00:33:23.578Z,11.38
2023-05-24T00:35:56.425Z,14.43
2023-05-24T00:38:25.388Z,12.43
2023-05-24T00:40:56.420Z,10.93
2023-05-24T00:43:26.587Z,10.90
2023-05-24T00:46:16.359Z,9.80
2023-05-24T00:48:45.796Z,10.23
2023-05-24T00:51:14.888Z,11.75
2023-05-24T00:53:47.009Z,12.32
2023-05-24T00:56:16.548Z,11.85
2023-05-24T00:58:46.640Z,15.02
2023-05-24T01:01:15.247Z,12.80
2023-05-24T01:03:44.284Z,11.82
2023-05-24T01:06:16.788Z,14.85
2023-05-24T01:08:58.583Z,12.55
2023-05-24T01:11:33.290Z,14.32
2023-05-24T01:14:14.492Z,13.18
2023-05-24T01:16:51.853Z,12.40
2023-05-24T01:19:51.238Z,12.68
2023-05-24T01:22:54.694Z,13.25
2023-05-24T01:25:33.971Z,12.13
2023-05-24T01:28:05.228Z,13.02
2023-05-24T01:30:34.448Z,11.05
2023-05-24T01:33:02.882Z,11.45
2023-05-24T01:35:31.183Z,11.73
2023-05-24T01:37:59.385Z,12.02
2023-05-24T01:40:27.808Z,10.88
2023-05-24T01:43:04.355Z,11.25
2023-05-24T01:45:40.772Z,11.07
2023-05-24T01:48:19.371Z,10.13
2023-05-24T01:50:53.183Z,11.35
2023-05-24T01:53:23.701Z,10.70
2023-05-24T01:55:54.606Z,11.73
2023-05-24T01:58:24.323Z,11.88
2023-05-24T02:00:54.852Z,10.80
2023-05-24T02:03:23.297Z,10.40
2023-05-24T02:05:51.761Z,10.20
2023-05-24T02:08:20.169Z,11.60
2023-05-24T02:10:48.726Z,12.35
2023-05-24T02:13:18.321Z,13.20
2023-05-24T02:15:47.974Z,11.52
2023-05-24T02:18:18.719Z,17.98
2023-05-24T02:20:47.243Z,13.35
2023-05-24T02:23:15.452Z,11.50
2023-05-24T02:25:44.055Z,11.63
2023-05-24T02:28:12.436Z,13.90
2023-05-24T02:30:44.907Z,12.05
2023-05-24T02:33:13.685Z,14.40
2023-05-24T02:35:43.387Z,13.00
2023-05-24T02:38:11.671Z,12.25
2023-05-24T02:40:40.723Z,12.57
2023-05-24T02:43:09.809Z,11.73
2023-05-24T02:45:38.213Z,16.70
2023-05-24T02:48:06.988Z,10.98
2023-05-24T02:50:36.916Z,12.57
2023-05-24T02:53:06.936Z,12.82
2023-05-24T02:55:35.294Z,11.45
2023-05-24T02:58:03.618Z,15.85
2023-05-24T03:00:33.345Z,11.85
2023-05-24T03:03:03.427Z,10.88
2023-05-24T03:05:31.946Z,11.93
2023-05-24T03:08:00.211Z,10.85
2023-05-24T03:10:29.901Z,11.63
2023-05-24T03:12:58.148Z,12.18
2023-05-24T03:15:26.847Z,10.15
2023-05-24T03:17:55.204Z,10.18
2023-05-24T03:20:23.964Z,13.18
2023-05-24T03:22:53.067Z,12.75
2023-05-24T03:25:22.166Z,11.85
2023-05-24T03:27:51.866Z,13.77
2023-05-24T03:30:21.092Z,14.93
2023-05-24T03:32:54.954Z,13.15
2023-05-24T03:35:23.350Z,13.45
2023-05-24T03:37:51.846Z,12.75
2023-05-24T03:40:20.613Z,11.68
2023-05-24T03:42:59.544Z,12.98
2023-05-24T03:45:44.372Z,14.00
2023-05-24T03:48:12.743Z,14.23
2023-05-24T03:50:41.135Z,13.52
2023-05-24T03:53:09.667Z,13.25
2023-05-24T03:55:37.900Z,13.40
2023-05-24T03:58:07.629Z,12.50
2023-05-24T04:00:36.019Z,11.20
2023-05-24T04:03:06.845Z,11.82
2023-05-24T04:05:35.521Z,13.50
2023-05-24T04:08:04.331Z,12.48
2023-05-24T04:10:33.124Z,11.13
2023-05-24T04:13:01.727Z,10.52
2023-05-24T04:15:31.834Z,12.13
2023-05-24T04:18:00.627Z,10.90
2023-05-24T04:20:29.378Z,17.23
2023-05-24T04:22:57.738Z,12.13
2023-05-24T04:25:26.991Z,13.52
2023-05-24T04:27:56.205Z,12.45
2023-05-24T04:30:26.032Z,12.38
2023-05-24T04:32:56.366Z,12.15
2023-05-24T04:35:25.645Z,11.07
2023-05-24T04:37:55.252Z,11.75
2023-05-24T04:40:24.022Z,12.15
2023-05-24T04:42:52.451Z,11.95
2023-05-24T04:45:20.824Z,12.50
2023-05-24T04:47:49.260Z,14.35
2023-05-24T04:50:19.483Z,13.57
2023-05-24T04:52:47.800Z,13.98
2023-05-24T04:55:16.187Z,18.30
2023-05-24T04:57:44.587Z,14.73
2023-05-24T05:00:14.176Z,14.02
2023-05-24T05:02:42.533Z,15.30
2023-05-24T05:05:11.282Z,15.32
2023-05-24T05:07:40.970Z,15.23
2023-05-24T05:10:10.261Z,13.93
2023-05-24T05:12:38.823Z,15.07
2023-05-24T05:15:08.494Z,21.05
2023-05-24T05:17:36.912Z,14.52
2023-05-24T05:20:07.063Z,15.57
2023-05-24T05:22:35.461Z,15.48
2023-05-24T05:25:05.434Z,20.95
2023-05-24T05:27:34.243Z,18.63
2023-05-24T05:30:02.509Z,17.63
2023-05-24T05:32:32.441Z,19.80
2023-05-24T05:35:00.707Z,18.25
2023-05-24T05:37:29.937Z,17.35
2023-05-24T05:39:58.442Z,19.23
2023-05-24T05:42:28.140Z,18.83
2023-05-24T05:44:56.563Z,18.73
2023-05-24T05:47:25.151Z,16.60
2023-05-24T05:49:53.452Z,17.95
2023-05-24T05:52:21.922Z,23.33
2023-05-24T05:54:50.215Z,19.43
2023-05-24T05:57:24.077Z,19.70
2023-05-24T05:59:53.762Z,19.50
2023-05-24T06:02:23.008Z,18.90
2023-05-24T06:04:51.824Z,19.13
2023-05-24T06:07:20.371Z,17.67
2023-05-24T06:09:48.604Z,21.93
2023-05-24T06:12:16.978Z,16.60
2023-05-24T06:14:45.276Z,19.50
2023-05-24T06:17:15.124Z,17.03
2023-05-24T06:19:43.642Z,16.70
2023-05-24T06:22:13.067Z,16.93
2023-05-24T06:24:41.387Z,19.40
2023-05-24T06:27:09.860Z,16.77
2023-05-24T06:29:38.571Z,15.83
2023-05-24T06:32:07.623Z,15.07
2023-05-24T06:34:37.295Z,17.43
2023-05-24T06:37:05.942Z,16.07
2023-05-24T06:39:34.078Z,14.67
2023-05-24T06:42:02.501Z,16.93
2023-05-24T06:44:37.624Z,15.17
2023-05-24T06:47:06.970Z,14.50
2023-05-24T06:49:37.290Z,17.77
2023-05-24T06:52:07.277Z,17.50
2023-05-24T06:54:35.593Z,19.00
2023-05-24T06:57:04.199Z,16.33
2023-05-24T06:59:32.368Z,16.10
2023-05-24T07:02:03.519Z,18.07
2023-05-24T07:04:32.533Z,17.33
2023-05-24T07:07:03.133Z,17.43
2023-05-24T07:09:31.635Z,17.10
2023-05-24T07:12:00.055Z,17.83
2023-05-24T07:14:29.043Z,14.67
2023-05-24T07:17:00.031Z,15.30
2023-05-24T07:19:29.711Z,15.93
2023-05-24T07:21:58.227Z,13.83
2023-05-24T07:24:27.833Z,13.83
2023-05-24T07:26:57.837Z,14.43
2023-05-24T07:29:26.299Z,14.00
2023-05-24T07:31:56.673Z,15.90
2023-05-24T07:34:27.669Z,12.40
2023-05-24T07:36:56.161Z,14.37
2023-05-24T07:39:25.403Z,11.30
2023-05-24T07:41:55.624Z,11.97
2023-05-24T07:44:24.518Z,12.07
2023-05-24T07:46:52.922Z,11.37
2023-05-24T07:49:22.224Z,10.43
2023-05-24T07:51:50.770Z,12.30
2023-05-24T07:54:19.069Z,10.40
2023-05-24T07:56:47.408Z,10.23
2023-05-24T07:59:17.435Z,11.10
2023-05-24T08:01:45.938Z,11.80
2023-05-24T08:04:14.195Z,9.73
2023-05-24T08:06:42.791Z,10.53
2023-05-24T08:09:11.414Z,9.80
2023-05-24T08:11:39.741Z,8.90
2023-05-24T08:14:08.011Z,10.30
2023-05-24T08:16:37.965Z,9.03
2023-05-24T08:19:06.926Z,9.03
2023-05-24T08:21:35.209Z,9.17
2023-05-24T08:24:04.423Z,10.20
2023-05-24T08:26:34.949Z,9.00
2023-05-24T08:29:03.945Z,7.33
2023-05-24T08:31:33.503Z,6.90
2023-05-24T08:34:03.653Z,9.93
2023-05-24T08:36:33.021Z,9.70
2023-05-24T08:39:01.355Z,6.77
2023-05-24T08:41:29.908Z,8.97
2023-05-24T08:44:01.837Z,10.40
2023-05-24T08:46:30.934Z,7.00
2023-05-24T08:49:00.088Z,6.73
2023-05-24T08:51:30.481Z,7.13
2023-05-24T08:54:00.410Z,6.50
2023-05-24T08:56:29.325Z,5.40
2023-05-24T08:58:58.002Z,6.33
2023-05-24T09:01:30.498Z,5.77
2023-05-24T09:04:01.285Z,6.07
2023-05-24T09:06:31.334Z,7.17
2023-05-24T09:09:01.960Z,7.57
2023-05-24T09:11:32.135Z,5.97
2023-05-24T09:14:01.959Z,6.20
2023-05-24T09:16:30.834Z,6.83
2023-05-24T09:18:59.200Z,6.50
2023-05-24T09:21:29.678Z,6.77
2023-05-24T09:23:59.785Z,7.50
2023-05-24T09:26:30.451Z,5.97
2023-05-24T09:28:58.730Z,6.07
2023-05-24T09:31:34.488Z,5.00
2023-05-24T09:34:03.174Z,6.20
2023-05-24T09:36:34.130Z,5.87
2023-05-24T09:39:11.635Z,5.70
2023-05-24T09:41:40.732Z,6.47
2023-05-24T09:44:09.002Z,5.20
2023-05-24T09:46:38.667Z,5.70
2023-05-24T09:49:08.518Z,4.90
2023-05-24T09:51:39.479Z,6.23
2023-05-24T09:54:10.394Z,5.30
2023-05-24T09:56:41.315Z,4.87
2023-05-24T09:59:10.858Z,5.20
2023-05-24T10:01:39.336Z,5.00
2023-05-24T10:04:09.978Z,5.80
2023-05-24T10:06:39.109Z,4.33
2023-05-24T10:09:10.200Z,4.53
2023-05-24T10:11:39.088Z,4.73
2023-05-24T10:14:08.363Z,4.63
2023-05-24T10:16:38.229Z,4.60
2023-05-24T10:19:07.984Z,5.43
2023-05-24T10:21:41.571Z,4.73
2023-05-24T10:24:14.963Z,6.00
2023-05-24T10:26:44.458Z,4.80
2023-05-24T10:29:18.917Z,5.10
2023-05-24T10:31:48.150Z,5.83
2023-05-24T10:34:16.819Z,5.73
2023-05-24T10:36:46.066Z,4.97
2023-05-24T10:39:15.789Z,5.00
2023-05-24T10:41:44.254Z,5.00
2023-05-24T10:44:13.620Z,5.70
2023-05-24T10:47:04.839Z,4.53
2023-05-24T10:49:33.179Z,5.20
2023-05-24T10:52:08.691Z,6.37
2023-05-24T10:54:41.308Z,12.00
2023-05-24T10:57:25.713Z,5.37
2023-05-24T10:59:53.991Z,4.83
2023-05-24T11:02:23.126Z,7.30
2023-05-24T11:04:51.464Z,5.20
2023-05-24T11:07:21.083Z,4.93
2023-05-24T11:09:56.235Z,6.70
2023-05-24T11:12:24.591Z,5.30
2023-05-24T11:14:54.134Z,4.90
2023-05-24T11:17:24.215Z,5.60
2023-05-24T11:19:53.869Z,5.20
2023-05-24T11:22:24.400Z,6.20
2023-05-24T11:24:55.327Z,5.60
2023-05-24T11:27:25.030Z,5.20
2023-05-24T11:29:53.983Z,6.47
2023-05-24T11:32:24.226Z,7.90
2023-05-24T11:34:52.874Z,6.00
2023-05-24T11:37:31.470Z,6.03
2023-05-24T11:40:12.307Z,5.43
2023-05-24T11:42:41.171Z,6.03
2023-05-24T11:45:10.971Z,5.13
2023-05-24T11:47:40.018Z,6.50
2023-05-24T11:50:09.297Z,6.23
2023-05-24T11:52:40.139Z,5.90
2023-05-24T11:55:16.385Z,5.53
2023-05-24T11:57:55.589Z,5.97
2023-05-24T12:00:27.228Z,5.97
2023-05-24T12:02:57.984Z,5.40
2023-05-24T12:05:26.375Z,5.87
2023-05-24T12:08:04.960Z,5.30
2023-05-24T12:10:36.070Z,5.33
2023-05-24T12:13:05.435Z,5.03
2023-05-24T12:15:34.049Z,5.60
2023-05-24T12:18:02.335Z,4.93
2023-05-24T12:20:31.082Z,5.93
2023-05-24T12:22:59.324Z,8.40
2023-05-24T12:25:28.812Z,4.53
2023-05-24T12:27:58.705Z,7.00
2023-05-24T12:30:28.451Z,5.33
2023-05-24T12:32:56.734Z,4.97
2023-05-24T12:35:25.381Z,5.60
2023-05-24T12:38:01.183Z,4.77
2023-05-24T12:40:33.917Z,5.07
2023-05-24T12:43:05.670Z,5.40
2023-05-24T12:45:34.760Z,5.70
2023-05-24T12:48:05.232Z,5.17
2023-05-24T12:50:34.863Z,5.23
2023-05-24T12:53:03.253Z,4.10
2023-05-24T12:55:31.583Z,4.77
2023-05-24T12:58:02.603Z,5.37
2023-05-24T13:00:32.203Z,5.53
2023-05-24T13:03:00.732Z,5.03
2023-05-24T13:05:30.056Z,5.30
2023-05-24T13:07:58.801Z,5.17
2023-05-24T13:10:27.820Z,5.70
2023-05-24T13:12:57.231Z,5.57
2023-05-24T13:15:27.356Z,5.07
2023-05-24T13:17:57.213Z,4.97
2023-05-24T13:20:25.735Z,5.83
2023-05-24T13:22:54.102Z,5.63
2023-05-24T13:25:22.834Z,5.90
2023-05-24T13:27:51.359Z,5.00
2023-05-24T13:30:27.425Z,5.30
2023-05-24T13:32:58.720Z,12.47
2023-05-24T13:35:27.174Z,5.77
2023-05-24T13:37:57.980Z,5.93
2023-05-24T13:40:26.995Z,6.03
2023-05-24T13:42:57.435Z,6.77
2023-05-24T13:45:25.883Z,6.70
2023-05-24T13:47:58.384Z,7.10
2023-05-24T13:50:28.132Z,8.60
2023-05-24T13:52:56.682Z,6.80
2023-05-24T13:55:25.133Z,6.60
2023-05-24T13:57:55.483Z,8.23
2023-05-24T14:00:24.848Z,6.43
2023-05-24T14:02:53.279Z,6.53
2023-05-24T14:05:27.892Z,6.47
2023-05-24T14:08:00.427Z,7.33
2023-05-24T14:10:29.111Z,5.70
2023-05-24T14:13:16.130Z,7.00
2023-05-24T14:15:46.909Z,6.40
2023-05-24T14:18:15.618Z,5.63
2023-05-24T14:20:43.980Z,6.50
2023-05-24T14:23:13.703Z,6.03
2023-05-24T14:25:42.471Z,6.63
2023-05-24T14:28:11.302Z,6.90
2023-05-24T14:30:39.747Z,5.70
2023-05-24T14:33:08.527Z,6.37
2023-05-24T14:35:39.746Z,6.43
2023-05-24T14:38:09.411Z,6.50
2023-05-24T14:40:40.135Z,7.10
2023-05-24T14:43:10.448Z,7.53
2023-05-24T14:45:41.549Z,7.93
2023-05-24T14:48:12.549Z,8.40
2023-05-24T14:50:42.091Z,7.27
2023-05-24T14:53:12.431Z,6.60
2023-05-24T14:55:43.944Z,7.07
2023-05-24T14:58:13.238Z,7.80
2023-05-24T15:00:44.103Z,6.27
2023-05-24T15:03:14.716Z,7.13
2023-05-24T15:05:43.706Z,6.43
2023-05-24T15:08:12.353Z,6.70
2023-05-24T15:10:44.618Z,7.00
2023-05-24T15:13:13.771Z,6.50
2023-05-24T15:15:42.094Z,6.50
2023-05-24T15:18:10.457Z,5.23
2023-05-24T15:20:38.915Z,7.73
2023-05-24T15:23:10.642Z,4.90
2023-05-24T15:25:39.276Z,6.27
2023-05-24T15:28:10.816Z,4.97
2023-05-24T15:30:39.075Z,5.03
2023-05-24T15:33:07.694Z,4.07
2023-05-24T15:35:36.399Z,5.00
2023-05-24T15:38:04.852Z,4.00
2023-05-24T15:40:33.158Z,4.93
2023-05-24T15:43:02.208Z,4.40
2023-05-24T15:45:32.328Z,4.73
2023-05-24T15:48:00.577Z,7.20
2023-05-24T15:50:47.548Z,5.00
2023-05-24T15:53:18.663Z,6.00
2023-05-24T15:55:48.277Z,5.90
2023-05-24T15:58:16.526Z,5.20
2023-05-24T16:00:46.331Z,5.87
2023-05-24T16:03:15.666Z,6.20
2023-05-24T16:05:44.447Z,5.70
2023-05-24T16:08:13.284Z,7.60
2023-05-24T16:10:42.289Z,6.93
2023-05-24T16:13:11.056Z,6.30
2023-05-24T16:15:41.797Z,6.17
2023-05-24T16:18:11.820Z,6.27
2023-05-24T16:20:40.196Z,7.07
2023-05-24T16:23:08.649Z,6.40
2023-05-24T16:25:36.903Z,7.30
2023-05-24T16:28:05.184Z,7.87
2023-05-24T16:30:34.641Z,7.00
2023-05-24T16:33:03.053Z,10.77
2023-05-24T16:35:33.012Z,9.40
2023-05-24T16:38:01.590Z,7.93
2023-05-24T16:40:30.066Z,9.10
2023-05-24T16:42:58.391Z,8.33
2023-05-24T16:45:26.681Z,9.63
2023-05-24T16:47:55.228Z,10.67
2023-05-24T16:50:23.504Z,7.43
2023-05-24T16:52:53.284Z,7.20
2023-05-24T16:55:22.321Z,8.27
2023-05-24T16:57:51.835Z,8.90
2023-05-24T17:00:20.882Z,8.63
2023-05-24T17:02:49.339Z,8.67
2023-05-24T17:05:17.741Z,9.27
2023-05-24T17:07:46.169Z,9.67
2023-05-24T17:10:15.800Z,8.90
2023-05-24T17:12:44.332Z,17.23
2023-05-24T17:15:13.133Z,14.07
2023-05-24T17:17:41.485Z,14.60
2023-05-24T17:20:10.375Z,10.97
2023-05-24T17:22:38.672Z,10.13
2023-05-24T17:25:08.108Z,9.77
2023-05-24T17:27:37.838Z,10.93
2023-05-24T17:30:07.590Z,10.57
2023-05-24T17:32:36.004Z,7.77
2023-05-24T17:35:04.691Z,9.23
2023-05-24T17:37:33.146Z,9.03
2023-05-24T17:40:01.592Z,8.20
2023-05-24T17:42:30.139Z,8.20
2023-05-24T17:44:59.714Z,9.40
2023-05-24T17:47:28.032Z,8.40
2023-05-24T17:49:56.297Z,9.77
2023-05-24T17:52:24.570Z,9.90
2023-05-24T17:54:52.910Z,8.60
2023-05-24T17:57:21.229Z,9.83
2023-05-24T17:59:49.817Z,10.70
2023-05-24T18:02:19.542Z,10.27
2023-05-24T18:04:47.825Z,12.17
2023-05-24T18:07:16.264Z,13.00
2023-05-24T18:09:44.481Z,11.00
2023-05-24T18:12:12.835Z,10.80
2023-05-24T18:14:41.860Z,13.77
2023-05-24T18:17:10.228Z,12.83
2023-05-24T18:19:39.970Z,14.20
2023-05-24T18:22:08.387Z,11.83
2023-05-24T18:24:36.586Z,11.93
2023-05-24T18:27:05.677Z,12.37
2023-05-24T18:29:34.589Z,11.73
2023-05-24T18:32:02.991Z,11.63
2023-05-24T18:34:31.234Z,10.10
2023-05-24T18:37:00.861Z,10.23
2023-05-24T18:39:29.066Z,8.67
2023-05-24T18:41:57.394Z,8.87
2023-05-24T18:44:25.811Z,8.40
2023-05-24T18:46:55.714Z,8.20
2023-05-24T18:49:24.267Z,7.33
2023-05-24T18:51:52.533Z,8.20
2023-05-24T18:54:22.269Z,10.83
2023-05-24T18:56:50.656Z,14.73
2023-05-24T18:59:21.637Z,10.90
2023-05-24T19:01:50.039Z,9.77
2023-05-24T19:04:18.268Z,9.37
2023-05-24T19:06:46.599Z,9.93
2023-05-24T19:09:15.016Z,9.37
2023-05-24T19:11:47.021Z,8.23
2023-05-24T19:14:17.750Z,9.20
2023-05-24T19:16:46.013Z,8.90
2023-05-24T19:19:14.283Z,10.30
2023-05-24T19:21:43.286Z,11.33
2023-05-24T19:24:11.635Z,12.03
2023-05-24T19:26:40.049Z,12.30
2023-05-24T19:29:10.050Z,10.50
2023-05-24T19:31:38.403Z,11.07
2023-05-24T19:34:06.771Z,11.47
2023-05-24T19:36:36.110Z,10.00
2023-05-24T19:39:05.097Z,10.67
2023-05-24T19:41:33.401Z,10.03
2023-05-24T19:44:01.723Z,10.03
2023-05-24T19:46:31.954Z,10.03
2023-05-24T19:49:00.277Z,11.33
2023-05-24T19:51:28.611Z,11.83
2023-05-24T19:53:56.908Z,11.23
2023-05-24T19:56:25.215Z,11.20
2023-05-24T19:58:53.463Z,11.40
2023-05-24T20:01:21.864Z,10.63
2023-05-24T20:03:52.009Z,11.20
2023-05-24T20:06:20.473Z,11.43
2023-05-24T20:08:48.971Z,11.47
2023-05-24T20:11:17.266Z,12.30
2023-05-24T20:13:45.811Z,12.93
2023-05-24T20:16:14.218Z,12.47
2023-05-24T20:18:42.569Z,13.00
2023-05-24T20:21:12.284Z,13.13
2023-05-24T20:23:40.624Z,14.03
2023-05-24T20:26:08.912Z,15.60
2023-05-24T20:28:37.266Z,14.10
2023-05-24T20:31:05.768Z,15.03
2023-05-24T20:33:37.992Z,16.27
2023-05-24T20:36:08.227Z,15.43
2023-05-24T20:38:39.624Z,14.50
2023-05-24T20:41:07.892Z,14.07
2023-05-24T20:43:36.171Z,13.30
2023-05-24T20:46:04.486Z,12.90
2023-05-24T20:48:32.946Z,14.87
2023-05-24T20:51:01.321Z,11.13
2023-05-24T20:53:29.558Z,12.30
2023-05-24T20:55:59.291Z,11.17
2023-05-24T20:58:27.528Z,9.03
2023-05-24T21:00:56.095Z,9.07
2023-05-24T21:03:24.343Z,9.00
2023-05-24T21:05:52.655Z,9.53
2023-05-24T21:08:20.961Z,8.20
2023-05-24T21:10:49.258Z,8.60
2023-05-24T21:13:20.435Z,8.20
2023-05-24T21:15:50.756Z,8.50
2023-05-24T21:18:19.265Z,7.90
2023-05-24T21:20:47.593Z,8.40
2023-05-24T21:23:16.004Z,8.77
2023-05-24T21:25:44.692Z,8.80
2023-05-24T21:28:13.974Z,9.13
2023-05-24T21:30:43.629Z,9.20
2023-05-24T21:33:11.979Z,8.80
2023-05-24T21:35:40.364Z,8.93
2023-05-24T21:38:08.630Z,7.70
2023-05-24T21:40:36.915Z,8.87
2023-05-24T21:43:05.792Z,8.00
2023-05-24T21:45:34.150Z,8.83
2023-05-24T21:48:03.795Z,7.67
2023-05-24T21:50:32.126Z,9.83
2023-05-24T21:53:00.435Z,6.97
2023-05-24T21:55:30.568Z,7.83
2023-05-24T21:57:58.806Z,11.30
2023-05-24T22:00:27.306Z,8.07
2023-05-24T22:02:55.747Z,7.70
2023-05-24T22:05:27.650Z,7.20
2023-05-24T22:07:56.246Z,7.50
2023-05-24T22:10:24.700Z,8.50
2023-05-24T22:12:52.924Z,8.03
2023-05-24T22:15:21.198Z,8.03
2023-05-24T22:17:50.386Z,8.83
2023-05-24T22:20:19.341Z,8.27
2023-05-24T22:22:53.277Z,9.50
2023-05-24T22:25:21.796Z,9.17
2023-05-24T22:27:50.131Z,8.23
2023-05-24T22:30:19.574Z,8.53
2023-05-24T22:32:47.954Z,8.33
2023-05-24T22:35:16.731Z,9.10
2023-05-24T22:37:44.920Z,11.57
2023-05-24T22:40:15.173Z,8.30
2023-05-24T22:42:43.346Z,9.40
2023-05-24T22:45:12.336Z,9.50
2023-05-24T22:47:40.584Z,7.97
2023-05-24T22:50:10.033Z,9.30
2023-05-24T22:52:42.451Z,8.00
2023-05-24T22:55:11.300Z,7.37
2023-05-24T22:57:41.009Z,8.27
2023-05-24T23:00:10.280Z,8.20
2023-05-24T23:02:38.534Z,9.03
2023-05-24T23:05:07.711Z,9.50
2023-05-24T23:07:37.502Z,8.90
2023-05-24T23:10:06.704Z,10.60
2023-05-24T23:12:35.938Z,13.07
2023-05-24T23:15:06.560Z,12.40
2023-05-24T23:17:34.874Z,10.63
2023-05-24T23:20:05.161Z,11.17
2023-05-24T23:22:33.972Z,10.40
2023-05-24T23:25:02.540Z,10.70
2023-05-24T23:27:31.065Z,10.57
2023-05-24T23:29:59.396Z,12.50
2023-05-24T23:32:29.364Z,11.93
2023-05-24T23:34:57.878Z,11.67
2023-05-24T23:37:26.579Z,11.70
2023-05-24T23:39:55.043Z,10.97
2023-05-24T23:42:23.255Z,11.50
2023-05-24T23:44:51.763Z,12.07
2023-05-24T23:47:20.185Z,11.67
2023-05-24T23:49:50.050Z,13.07
2023-05-24T23:52:18.760Z,12.30
2023-05-24T23:54:47.052Z,12.57
2023-05-24T23:57:17.506Z,11.83
2023-05-24T23:59:45.766Z,12.40
